sensor_id;sensor_type;location;lat;lon;timestamp;temperature;humidity
4548;DHT22;2286;51.570;7.090;2023-06-05T00:01:44;15.00;99.90
4548;DHT22;2286;51.570;7.090;2023-06-05T00:04:11;15.00;99.90
4548;DHT22;2286;51.570;7.090;2023-06-05T00:06:38;14.90;99.90
4548;DHT22;2286;51.570;7.090;2023-06-05T00:09:05;14.90;99.90
4548;DHT22;2286;51.570;7.090;2023-06-05T00:11:32;14.70;99.90
4548;DHT22;2286;51.570;7.090;2023-06-05T00:13:59;14.70;99.90
4548;DHT22;2286;51.570;7.090;2023-06-05T00:16:26;14.70;99.90
4548;DHT22;2286;51.570;7.090;2023-06-05T00:18:54;14.70;99.90
4548;DHT22;2286;51.570;7.090;2023-06-05T00:21:21;14.60;99.90
4548;DHT22;2286;51.570;7.090;2023-06-05T00:23:50;14.50;99.90
4548;DHT22;2286;51.570;7.090;2023-06-05T00:26:17;14.40;99.90
4548;DHT22;2286;51.570;7.090;2023-06-05T00:28:44;14.40;99.90
4548;DHT22;2286;51.570;7.090;2023-06-05T00:31:10;14.40;99.90
4548;DHT22;2286;51.570;7.090;2023-06-05T00:33:38;14.30;99.90
4548;DHT22;2286;51.570;7.090;2023-06-05T00:36:06;14.30;99.90
4548;DHT22;2286;51.570;7.090;2023-06-05T00:38:33;14.30;99.90
4548;DHT22;2286;51.570;7.090;2023-06-05T00:41:01;14.20;99.90
4548;DHT22;2286;51.570;7.090;2023-06-05T00:43:27;14.10;99.90
4548;DHT22;2286;51.570;7.090;2023-06-05T00:45:58;14.00;99.90
4548;DHT22;2286;51.570;7.090;2023-06-05T00:48:26;13.90;99.90
4548;DHT22;2286;51.570;7.090;2023-06-05T00:50:53;14.00;99.90
4548;DHT22;2286;51.570;7.090;2023-06-05T00:53:21;14.00;99.90
4548;DHT22;2286;51.570;7.090;2023-06-05T00:55:48;13.90;1.00
4548;DHT22;2286;51.570;7.090;2023-06-05T00:58:15;13.90;1.00
4548;DHT22;2286;51.570;7.090;2023-06-05T01:00:43;13.90;1.00
4548;DHT22;2286;51.570;7.090;2023-06-05T01:03:11;13.80;1.00
4548;DHT22;2286;51.570;7.090;2023-06-05T01:05:38;13.80;1.00
4548;DHT22;2286;51.570;7.090;2023-06-05T01:08:05;13.80;1.00
4548;DHT22;2286;51.570;7.090;2023-06-05T01:10:36;13.80;1.00
4548;DHT22;2286;51.570;7.090;2023-06-05T01:13:06;13.70;1.00
4548;DHT22;2286;51.570;7.090;2023-06-05T01:15:35;13.70;1.00
4548;DHT22;2286;51.570;7.090;2023-06-05T01:18:03;13.50;1.00
4548;DHT22;2286;51.570;7.090;2023-06-05T01:20:33;13.50;1.00
4548;DHT22;2286;51.570;7.090;2023-06-05T01:23:01;13.40;1.00
4548;DHT22;2286;51.570;7.090;2023-06-05T01:25:28;13.30;1.00
4548;DHT22;2286;51.570;7.090;2023-06-05T01:28:02;13.30;1.00
4548;DHT22;2286;51.570;7.090;2023-06-05T01:30:34;13.30;1.00
4548;DHT22;2286;51.570;7.090;2023-06-05T01:33:07;13.20;1.00
4548;DHT22;2286;51.570;7.090;2023-06-05T01:35:35;13.10;1.00
4548;DHT22;2286;51.570;7.090;2023-06-05T01:38:04;13.10;1.00
4548;DHT22;2286;51.570;7.090;2023-06-05T01:40:33;13.10;1.00
4548;DHT22;2286;51.570;7.090;2023-06-05T01:43:01;13.00;1.00
4548;DHT22;2286;51.570;7.090;2023-06-05T01:45:30;13.10;1.00
4548;DHT22;2286;51.570;7.090;2023-06-05T01:47:57;13.00;1.00
4548;DHT22;2286;51.570;7.090;2023-06-05T01:50:25;13.00;1.00
4548;DHT22;2286;51.570;7.090;2023-06-05T01:52:52;13.00;1.00
4548;DHT22;2286;51.570;7.090;2023-06-05T01:55:22;12.90;1.00
4548;DHT22;2286;51.570;7.090;2023-06-05T01:57:50;12.80;1.00
4548;DHT22;2286;51.570;7.090;2023-06-05T02:00:17;12.80;1.00
4548;DHT22;2286;51.570;7.090;2023-06-05T02:02:45;12.70;1.00
4548;DHT22;2286;51.570;7.090;2023-06-05T02:05:14;12.70;1.00
4548;DHT22;2286;51.570;7.090;2023-06-05T02:07:45;12.60;1.00
4548;DHT22;2286;51.570;7.090;2023-06-05T02:10:15;12.60;1.00
4548;DHT22;2286;51.570;7.090;2023-06-05T02:12:45;12.50;1.00
4548;DHT22;2286;51.570;7.090;2023-06-05T02:15:12;12.50;1.00
4548;DHT22;2286;51.570;7.090;2023-06-05T02:17:41;12.40;1.00
4548;DHT22;2286;51.570;7.090;2023-06-05T02:20:11;12.40;1.00
4548;DHT22;2286;51.570;7.090;2023-06-05T02:22:38;12.40;1.00
4548;DHT22;2286;51.570;7.090;2023-06-05T02:25:05;12.30;1.00
4548;DHT22;2286;51.570;7.090;2023-06-05T02:27:32;12.30;1.00
4548;DHT22;2286;51.570;7.090;2023-06-05T02:30:00;12.20;15.50
4548;DHT22;2286;51.570;7.090;2023-06-05T02:32:27;12.20;25.80
4548;DHT22;2286;51.570;7.090;2023-06-05T02:34:54;12.20;51.70
4548;DHT22;2286;51.570;7.090;2023-06-05T02:37:22;12.20;73.00
4548;DHT22;2286;51.570;7.090;2023-06-05T02:39:49;12.10;81.40
4548;DHT22;2286;51.570;7.090;2023-06-05T02:42:16;12.10;55.70
4548;DHT22;2286;51.570;7.090;2023-06-05T02:44:44;12.00;96.10
4548;DHT22;2286;51.570;7.090;2023-06-05T02:47:12;11.90;99.90
4548;DHT22;2286;51.570;7.090;2023-06-05T02:49:39;11.80;99.90
4548;DHT22;2286;51.570;7.090;2023-06-05T02:52:06;11.80;99.90
4548;DHT22;2286;51.570;7.090;2023-06-05T02:54:33;11.70;99.90
4548;DHT22;2286;51.570;7.090;2023-06-05T02:57:00;11.70;99.90
4548;DHT22;2286;51.570;7.090;2023-06-05T02:59:27;11.70;99.90
4548;DHT22;2286;51.570;7.090;2023-06-05T03:01:57;11.70;99.90
4548;DHT22;2286;51.570;7.090;2023-06-05T03:04:25;11.70;99.90
4548;DHT22;2286;51.570;7.090;2023-06-05T03:06:52;11.60;99.90
4548;DHT22;2286;51.570;7.090;2023-06-05T03:09:22;11.60;99.90
4548;DHT22;2286;51.570;7.090;2023-06-05T03:11:49;11.60;99.90
4548;DHT22;2286;51.570;7.090;2023-06-05T03:14:16;11.50;99.90
4548;DHT22;2286;51.570;7.090;2023-06-05T03:16:43;11.50;99.90
4548;DHT22;2286;51.570;7.090;2023-06-05T03:19:11;11.50;1.00
4548;DHT22;2286;51.570;7.090;2023-06-05T03:21:40;11.40;1.00
4548;DHT22;2286;51.570;7.090;2023-06-05T03:24:10;11.40;1.00
4548;DHT22;2286;51.570;7.090;2023-06-05T03:26:38;11.30;1.00
4548;DHT22;2286;51.570;7.090;2023-06-05T03:29:06;11.40;1.00
4548;DHT22;2286;51.570;7.090;2023-06-05T03:31:33;11.40;1.00
4548;DHT22;2286;51.570;7.090;2023-06-05T03:34:00;11.30;1.00
4548;DHT22;2286;51.570;7.090;2023-06-05T03:36:29;11.40;1.00
4548;DHT22;2286;51.570;7.090;2023-06-05T03:39:00;11.40;1.00
4548;DHT22;2286;51.570;7.090;2023-06-05T03:41:27;11.40;1.00
4548;DHT22;2286;51.570;7.090;2023-06-05T03:43:54;11.40;1.00
4548;DHT22;2286;51.570;7.090;2023-06-05T03:46:22;11.30;1.00
4548;DHT22;2286;51.570;7.090;2023-06-05T03:48:49;11.40;1.00
4548;DHT22;2286;51.570;7.090;2023-06-05T03:51:18;11.40;1.00
4548;DHT22;2286;51.570;7.090;2023-06-05T03:53:46;11.30;1.00
4548;DHT22;2286;51.570;7.090;2023-06-05T03:56:22;11.30;1.00
4548;DHT22;2286;51.570;7.090;2023-06-05T03:58:49;11.30;1.00
4548;DHT22;2286;51.570;7.090;2023-06-05T04:01:16;11.30;17.10
4548;DHT22;2286;51.570;7.090;2023-06-05T04:03:43;11.30;11.40
4548;DHT22;2286;51.570;7.090;2023-06-05T04:06:10;11.30;1.00
4548;DHT22;2286;51.570;7.090;2023-06-05T04:08:36;11.30;1.00
4548;DHT22;2286;51.570;7.090;2023-06-05T04:11:03;11.40;1.00
4548;DHT22;2286;51.570;7.090;2023-06-05T04:13:32;11.30;1.00
4548;DHT22;2286;51.570;7.090;2023-06-05T04:15:59;11.30;1.00
4548;DHT22;2286;51.570;7.090;2023-06-05T04:18:27;11.40;1.00
4548;DHT22;2286;51.570;7.090;2023-06-05T04:20:54;11.50;1.00
4548;DHT22;2286;51.570;7.090;2023-06-05T04:23:21;11.50;1.00
4548;DHT22;2286;51.570;7.090;2023-06-05T04:25:49;11.50;1.00
4548;DHT22;2286;51.570;7.090;2023-06-05T04:28:19;11.50;1.00
4548;DHT22;2286;51.570;7.090;2023-06-05T04:30:49;11.60;1.00
4548;DHT22;2286;51.570;7.090;2023-06-05T04:33:15;11.50;1.00
4548;DHT22;2286;51.570;7.090;2023-06-05T04:35:43;11.60;1.00
4548;DHT22;2286;51.570;7.090;2023-06-05T04:38:10;11.60;1.00
4548;DHT22;2286;51.570;7.090;2023-06-05T04:40:36;11.70;1.00
4548;DHT22;2286;51.570;7.090;2023-06-05T04:43:03;11.80;1.00
4548;DHT22;2286;51.570;7.090;2023-06-05T04:45:30;11.80;1.00
4548;DHT22;2286;51.570;7.090;2023-06-05T04:47:59;11.70;1.00
4548;DHT22;2286;51.570;7.090;2023-06-05T04:50:26;11.70;1.00
4548;DHT22;2286;51.570;7.090;2023-06-05T04:52:55;11.80;1.00
4548;DHT22;2286;51.570;7.090;2023-06-05T04:55:22;11.80;1.00
4548;DHT22;2286;51.570;7.090;2023-06-05T04:57:49;11.80;1.00
4548;DHT22;2286;51.570;7.090;2023-06-05T05:00:17;11.90;1.00
4548;DHT22;2286;51.570;7.090;2023-06-05T05:02:44;12.00;1.00
4548;DHT22;2286;51.570;7.090;2023-06-05T05:05:13;12.00;1.00
4548;DHT22;2286;51.570;7.090;2023-06-05T05:07:41;12.00;1.00
4548;DHT22;2286;51.570;7.090;2023-06-05T05:10:09;12.00;1.00
4548;DHT22;2286;51.570;7.090;2023-06-05T05:12:36;12.10;99.90
4548;DHT22;2286;51.570;7.090;2023-06-05T05:15:04;12.10;99.90
4548;DHT22;2286;51.570;7.090;2023-06-05T05:17:31;12.10;99.90
4548;DHT22;2286;51.570;7.090;2023-06-05T05:19:58;12.20;99.90
4548;DHT22;2286;51.570;7.090;2023-06-05T05:22:26;12.30;99.90
4548;DHT22;2286;51.570;7.090;2023-06-05T05:24:53;12.40;99.90
4548;DHT22;2286;51.570;7.090;2023-06-05T05:27:20;12.40;99.90
4548;DHT22;2286;51.570;7.090;2023-06-05T05:29:47;12.50;99.90
4548;DHT22;2286;51.570;7.090;2023-06-05T05:32:14;12.50;99.90
4548;DHT22;2286;51.570;7.090;2023-06-05T05:34:41;12.60;99.90
4548;DHT22;2286;51.570;7.090;2023-06-05T05:37:08;12.60;99.90
4548;DHT22;2286;51.570;7.090;2023-06-05T05:39:36;12.70;99.90
4548;DHT22;2286;51.570;7.090;2023-06-05T05:42:04;12.80;99.90
4548;DHT22;2286;51.570;7.090;2023-06-05T05:44:31;12.80;99.90
4548;DHT22;2286;51.570;7.090;2023-06-05T05:46:58;12.90;99.90
4548;DHT22;2286;51.570;7.090;2023-06-05T05:49:24;13.00;99.90
4548;DHT22;2286;51.570;7.090;2023-06-05T05:51:51;13.10;99.90
4548;DHT22;2286;51.570;7.090;2023-06-05T05:54:18;13.10;99.90
4548;DHT22;2286;51.570;7.090;2023-06-05T05:56:49;13.20;80.80
4548;DHT22;2286;51.570;7.090;2023-06-05T05:59:16;13.20;49.60
4548;DHT22;2286;51.570;7.090;2023-06-05T06:01:43;13.30;5.00
4548;DHT22;2286;51.570;7.090;2023-06-05T06:04:11;13.40;11.40
4548;DHT22;2286;51.570;7.090;2023-06-05T06:06:38;13.50;1.00
4548;DHT22;2286;51.570;7.090;2023-06-05T06:09:05;13.60;1.00
4548;DHT22;2286;51.570;7.090;2023-06-05T06:11:33;13.60;1.00
4548;DHT22;2286;51.570;7.090;2023-06-05T06:14:02;13.70;1.00
4548;DHT22;2286;51.570;7.090;2023-06-05T06:16:29;13.70;1.00
4548;DHT22;2286;51.570;7.090;2023-06-05T06:18:56;13.80;1.00
4548;DHT22;2286;51.570;7.090;2023-06-05T06:21:23;13.90;1.00
4548;DHT22;2286;51.570;7.090;2023-06-05T06:23:51;14.00;1.00
4548;DHT22;2286;51.570;7.090;2023-06-05T06:26:18;14.10;1.00
4548;DHT22;2286;51.570;7.090;2023-06-05T06:28:45;14.10;1.00
4548;DHT22;2286;51.570;7.090;2023-06-05T06:31:13;14.30;1.00
4548;DHT22;2286;51.570;7.090;2023-06-05T06:33:40;14.30;1.00
4548;DHT22;2286;51.570;7.090;2023-06-05T06:36:09;14.40;1.00
4548;DHT22;2286;51.570;7.090;2023-06-05T06:38:37;14.50;1.00
4548;DHT22;2286;51.570;7.090;2023-06-05T06:41:04;14.60;1.00
4548;DHT22;2286;51.570;7.090;2023-06-05T06:43:31;14.60;1.00
4548;DHT22;2286;51.570;7.090;2023-06-05T06:45:58;14.70;1.00
4548;DHT22;2286;51.570;7.090;2023-06-05T06:48:27;14.80;1.00
4548;DHT22;2286;51.570;7.090;2023-06-05T06:50:54;14.90;1.00
4548;DHT22;2286;51.570;7.090;2023-06-05T06:53:21;14.90;1.00
4548;DHT22;2286;51.570;7.090;2023-06-05T06:55:47;15.00;1.00
4548;DHT22;2286;51.570;7.090;2023-06-05T06:58:14;15.10;1.00
4548;DHT22;2286;51.570;7.090;2023-06-05T07:00:41;15.20;1.00
4548;DHT22;2286;51.570;7.090;2023-06-05T07:03:09;15.30;1.00
4548;DHT22;2286;51.570;7.090;2023-06-05T07:05:37;15.40;1.00
4548;DHT22;2286;51.570;7.090;2023-06-05T07:08:04;15.40;99.90
4548;DHT22;2286;51.570;7.090;2023-06-05T07:10:31;15.40;99.90
4548;DHT22;2286;51.570;7.090;2023-06-05T07:12:58;15.50;99.90
4548;DHT22;2286;51.570;7.090;2023-06-05T07:15:25;15.70;99.90
4548;DHT22;2286;51.570;7.090;2023-06-05T07:17:51;15.70;99.90
4548;DHT22;2286;51.570;7.090;2023-06-05T07:20:18;15.80;99.90
4548;DHT22;2286;51.570;7.090;2023-06-05T07:22:47;15.90;99.90
4548;DHT22;2286;51.570;7.090;2023-06-05T07:25:14;16.00;99.90
4548;DHT22;2286;51.570;7.090;2023-06-05T07:27:43;16.10;99.90
4548;DHT22;2286;51.570;7.090;2023-06-05T07:30:11;16.20;99.90
4548;DHT22;2286;51.570;7.090;2023-06-05T07:32:39;16.30;99.90
4548;DHT22;2286;51.570;7.090;2023-06-05T07:35:08;16.30;99.90
4548;DHT22;2286;51.570;7.090;2023-06-05T07:37:35;16.50;99.90
4548;DHT22;2286;51.570;7.090;2023-06-05T07:40:05;16.60;99.90
4548;DHT22;2286;51.570;7.090;2023-06-05T07:42:32;16.80;99.90
4548;DHT22;2286;51.570;7.090;2023-06-05T07:45:00;16.90;99.90
4548;DHT22;2286;51.570;7.090;2023-06-05T07:47:27;16.90;99.90
4548;DHT22;2286;51.570;7.090;2023-06-05T07:49:57;17.00;99.90
4548;DHT22;2286;51.570;7.090;2023-06-05T07:52:25;17.10;99.90
4548;DHT22;2286;51.570;7.090;2023-06-05T07:54:52;17.20;99.90
4548;DHT22;2286;51.570;7.090;2023-06-05T07:57:21;17.30;99.90
4548;DHT22;2286;51.570;7.090;2023-06-05T07:59:49;17.40;99.90
4548;DHT22;2286;51.570;7.090;2023-06-05T08:02:17;17.50;99.90
4548;DHT22;2286;51.570;7.090;2023-06-05T08:04:44;17.70;99.90
4548;DHT22;2286;51.570;7.090;2023-06-05T08:07:11;17.90;99.90
4548;DHT22;2286;51.570;7.090;2023-06-05T08:09:38;17.90;99.90
4548;DHT22;2286;51.570;7.090;2023-06-05T08:12:05;17.90;99.90
4548;DHT22;2286;51.570;7.090;2023-06-05T08:14:34;18.10;99.90
4548;DHT22;2286;51.570;7.090;2023-06-05T08:17:02;18.20;99.90
4548;DHT22;2286;51.570;7.090;2023-06-05T08:19:29;18.30;99.90
4548;DHT22;2286;51.570;7.090;2023-06-05T08:21:56;18.30;99.90
4548;DHT22;2286;51.570;7.090;2023-06-05T08:24:24;18.40;99.90
4548;DHT22;2286;51.570;7.090;2023-06-05T08:26:52;18.70;99.90
4548;DHT22;2286;51.570;7.090;2023-06-05T08:29:19;18.90;99.90
4548;DHT22;2286;51.570;7.090;2023-06-05T08:31:47;18.90;99.90
4548;DHT22;2286;51.570;7.090;2023-06-05T08:34:14;19.00;99.90
4548;DHT22;2286;51.570;7.090;2023-06-05T08:36:41;19.10;99.90
4548;DHT22;2286;51.570;7.090;2023-06-05T08:39:08;19.10;99.90
4548;DHT22;2286;51.570;7.090;2023-06-05T08:41:35;19.20;99.90
4548;DHT22;2286;51.570;7.090;2023-06-05T08:44:03;19.30;99.90
4548;DHT22;2286;51.570;7.090;2023-06-05T08:46:30;19.40;99.90
4548;DHT22;2286;51.570;7.090;2023-06-05T08:49:06;19.50;99.90
4548;DHT22;2286;51.570;7.090;2023-06-05T08:51:34;19.70;99.90
4548;DHT22;2286;51.570;7.090;2023-06-05T08:54:03;19.90;99.90
4548;DHT22;2286;51.570;7.090;2023-06-05T08:56:30;19.90;99.90
4548;DHT22;2286;51.570;7.090;2023-06-05T08:58:58;20.10;99.90
4548;DHT22;2286;51.570;7.090;2023-06-05T09:01:25;20.20;99.90
4548;DHT22;2286;51.570;7.090;2023-06-05T09:03:53;20.30;99.90
4548;DHT22;2286;51.570;7.090;2023-06-05T09:06:21;20.40;99.90
4548;DHT22;2286;51.570;7.090;2023-06-05T09:08:48;20.50;99.90
4548;DHT22;2286;51.570;7.090;2023-06-05T09:11:22;20.60;99.90
4548;DHT22;2286;51.570;7.090;2023-06-05T09:13:49;20.90;99.90
4548;DHT22;2286;51.570;7.090;2023-06-05T09:16:19;21.10;99.90
4548;DHT22;2286;51.570;7.090;2023-06-05T09:18:53;21.00;99.90
4548;DHT22;2286;51.570;7.090;2023-06-05T09:21:22;21.10;99.90
4548;DHT22;2286;51.570;7.090;2023-06-05T09:24:13;21.30;99.90
4548;DHT22;2286;51.570;7.090;2023-06-05T09:26:49;21.50;99.90
4548;DHT22;2286;51.570;7.090;2023-06-05T09:29:21;21.70;99.90
4548;DHT22;2286;51.570;7.090;2023-06-05T09:31:48;22.00;99.90
4548;DHT22;2286;51.570;7.090;2023-06-05T09:34:22;22.20;99.90
4548;DHT22;2286;51.570;7.090;2023-06-05T09:36:51;22.40;99.90
4548;DHT22;2286;51.570;7.090;2023-06-05T09:39:21;22.50;99.90
4548;DHT22;2286;51.570;7.090;2023-06-05T09:41:50;22.70;99.90
4548;DHT22;2286;51.570;7.090;2023-06-05T09:44:17;22.90;99.90
4548;DHT22;2286;51.570;7.090;2023-06-05T09:46:55;23.00;99.90
4548;DHT22;2286;51.570;7.090;2023-06-05T09:49:25;23.10;99.90
4548;DHT22;2286;51.570;7.090;2023-06-05T09:51:55;23.20;99.90
4548;DHT22;2286;51.570;7.090;2023-06-05T09:54:22;23.40;99.90
4548;DHT22;2286;51.570;7.090;2023-06-05T09:56:56;23.50;99.90
4548;DHT22;2286;51.570;7.090;2023-06-05T09:59:27;23.70;99.90
4548;DHT22;2286;51.570;7.090;2023-06-05T10:01:56;24.00;99.90
4548;DHT22;2286;51.570;7.090;2023-06-05T10:04:24;24.10;99.90
4548;DHT22;2286;51.570;7.090;2023-06-05T10:07:00;24.20;99.90
4548;DHT22;2286;51.570;7.090;2023-06-05T10:09:29;24.60;99.90
4548;DHT22;2286;51.570;7.090;2023-06-05T10:11:56;24.80;99.90
4548;DHT22;2286;51.570;7.090;2023-06-05T10:14:23;25.00;99.90
4548;DHT22;2286;51.570;7.090;2023-06-05T10:16:51;25.30;99.90
4548;DHT22;2286;51.570;7.090;2023-06-05T10:19:19;25.40;99.90
4548;DHT22;2286;51.570;7.090;2023-06-05T10:21:47;25.90;99.90
4548;DHT22;2286;51.570;7.090;2023-06-05T10:24:19;26.20;99.90
4548;DHT22;2286;51.570;7.090;2023-06-05T10:30:15;26.60;97.50
4548;DHT22;2286;51.570;7.090;2023-06-05T10:32:59;27.10;96.50
4548;DHT22;2286;51.570;7.090;2023-06-05T10:35:39;27.60;97.00
4548;DHT22;2286;51.570;7.090;2023-06-05T10:38:16;28.20;97.00
4548;DHT22;2286;51.570;7.090;2023-06-05T10:40:45;29.00;99.90
4548;DHT22;2286;51.570;7.090;2023-06-05T10:43:30;29.60;97.10
4548;DHT22;2286;51.570;7.090;2023-06-05T10:45:59;30.50;97.50
4548;DHT22;2286;51.570;7.090;2023-06-05T10:51:35;31.80;99.90
4548;DHT22;2286;51.570;7.090;2023-06-05T10:54:04;31.90;99.00
4548;DHT22;2286;51.570;7.090;2023-06-05T10:56:58;32.10;98.90
4548;DHT22;2286;51.570;7.090;2023-06-05T10:59:27;32.40;98.50
4548;DHT22;2286;51.570;7.090;2023-06-05T11:02:22;33.10;99.60
4548;DHT22;2286;51.570;7.090;2023-06-05T11:05:08;32.70;98.30
4548;DHT22;2286;51.570;7.090;2023-06-05T11:07:39;33.00;96.80
4548;DHT22;2286;51.570;7.090;2023-06-05T11:10:11;33.60;97.70
4548;DHT22;2286;51.570;7.090;2023-06-05T11:12:59;34.20;98.50
4548;DHT22;2286;51.570;7.090;2023-06-05T11:15:36;34.20;97.90
4548;DHT22;2286;51.570;7.090;2023-06-05T11:18:28;34.40;98.60
4548;DHT22;2286;51.570;7.090;2023-06-05T11:20:56;35.00;99.20
4548;DHT22;2286;51.570;7.090;2023-06-05T11:23:23;34.90;98.10
4548;DHT22;2286;51.570;7.090;2023-06-05T11:25:54;35.00;97.70
4548;DHT22;2286;51.570;7.090;2023-06-05T11:28:43;35.60;98.60
4548;DHT22;2286;51.570;7.090;2023-06-05T11:31:11;35.70;98.30
4548;DHT22;2286;51.570;7.090;2023-06-05T11:33:38;35.50;96.80
4548;DHT22;2286;51.570;7.090;2023-06-05T11:36:06;35.80;97.20
4548;DHT22;2286;51.570;7.090;2023-06-05T11:38:37;36.10;98.10
4548;DHT22;2286;51.570;7.090;2023-06-05T11:41:08;36.20;96.00
4548;DHT22;2286;51.570;7.090;2023-06-05T11:43:43;36.00;95.00
4548;DHT22;2286;51.570;7.090;2023-06-05T11:46:10;36.50;95.40
4548;DHT22;2286;51.570;7.090;2023-06-05T11:48:43;36.60;95.20
4548;DHT22;2286;51.570;7.090;2023-06-05T11:51:10;36.50;94.30
4548;DHT22;2286;51.570;7.090;2023-06-05T11:53:44;36.60;94.00
4548;DHT22;2286;51.570;7.090;2023-06-05T11:56:13;37.50;95.40
4548;DHT22;2286;51.570;7.090;2023-06-05T11:58:43;37.30;94.60
4548;DHT22;2286;51.570;7.090;2023-06-05T12:01:13;37.50;94.70
4548;DHT22;2286;51.570;7.090;2023-06-05T12:03:43;37.70;94.60
4548;DHT22;2286;51.570;7.090;2023-06-05T12:06:11;37.50;94.00
4548;DHT22;2286;51.570;7.090;2023-06-05T12:08:40;38.00;94.90
4548;DHT22;2286;51.570;7.090;2023-06-05T12:11:21;37.20;91.00
4548;DHT22;2286;51.570;7.090;2023-06-05T12:13:51;37.20;91.70
4548;DHT22;2286;51.570;7.090;2023-06-05T12:16:19;38.20;93.80
4548;DHT22;2286;51.570;7.090;2023-06-05T12:18:46;38.40;94.00
4548;DHT22;2286;51.570;7.090;2023-06-05T12:21:22;39.00;95.10
4548;DHT22;2286;51.570;7.090;2023-06-05T12:23:50;38.80;94.70
4548;DHT22;2286;51.570;7.090;2023-06-05T12:26:18;39.10;95.60
4548;DHT22;2286;51.570;7.090;2023-06-05T12:28:45;38.80;93.60
4548;DHT22;2286;51.570;7.090;2023-06-05T12:31:33;38.20;91.50
4548;DHT22;2286;51.570;7.090;2023-06-05T12:34:02;38.30;92.10
4548;DHT22;2286;51.570;7.090;2023-06-05T12:36:29;39.20;94.20
4548;DHT22;2286;51.570;7.090;2023-06-05T12:39:02;39.30;93.80
4548;DHT22;2286;51.570;7.090;2023-06-05T12:41:31;39.30;93.50
4548;DHT22;2286;51.570;7.090;2023-06-05T12:43:59;38.40;89.10
4548;DHT22;2286;51.570;7.090;2023-06-05T12:46:27;39.00;92.90
4548;DHT22;2286;51.570;7.090;2023-06-05T12:48:56;39.70;94.00
4548;DHT22;2286;51.570;7.090;2023-06-05T12:51:23;39.60;92.70
4548;DHT22;2286;51.570;7.090;2023-06-05T12:53:51;39.20;91.20
4548;DHT22;2286;51.570;7.090;2023-06-05T12:56:18;39.40;91.90
4548;DHT22;2286;51.570;7.090;2023-06-05T12:58:48;39.30;92.10
4548;DHT22;2286;51.570;7.090;2023-06-05T13:01:15;39.70;92.90
4548;DHT22;2286;51.570;7.090;2023-06-05T13:03:43;40.10;99.90
4548;DHT22;2286;51.570;7.090;2023-06-05T13:06:11;40.60;94.50
4548;DHT22;2286;51.570;7.090;2023-06-05T13:08:38;40.70;94.80
4548;DHT22;2286;51.570;7.090;2023-06-05T13:11:05;40.70;94.40
4548;DHT22;2286;51.570;7.090;2023-06-05T13:13:32;40.40;93.00
4548;DHT22;2286;51.570;7.090;2023-06-05T13:15:59;39.90;91.40
4548;DHT22;2286;51.570;7.090;2023-06-05T13:18:27;40.60;99.90
4548;DHT22;2286;51.570;7.090;2023-06-05T13:20:54;40.50;92.40
4548;DHT22;2286;51.570;7.090;2023-06-05T13:23:22;40.20;91.00
4548;DHT22;2286;51.570;7.090;2023-06-05T13:25:49;40.60;92.20
4548;DHT22;2286;51.570;7.090;2023-06-05T13:28:16;40.60;91.90
4548;DHT22;2286;51.570;7.090;2023-06-05T13:30:44;40.80;92.20
4548;DHT22;2286;51.570;7.090;2023-06-05T13:33:12;41.20;93.40
4548;DHT22;2286;51.570;7.090;2023-06-05T13:35:39;41.30;93.00
4548;DHT22;2286;51.570;7.090;2023-06-05T13:38:06;41.30;92.90
4548;DHT22;2286;51.570;7.090;2023-06-05T13:40:34;40.70;90.80
4548;DHT22;2286;51.570;7.090;2023-06-05T13:43:01;40.90;92.10
4548;DHT22;2286;51.570;7.090;2023-06-05T13:45:31;41.80;94.10
4548;DHT22;2286;51.570;7.090;2023-06-05T13:47:59;42.50;96.30
4548;DHT22;2286;51.570;7.090;2023-06-05T13:50:26;42.90;96.40
4548;DHT22;2286;51.570;7.090;2023-06-05T13:52:53;43.20;96.40
4548;DHT22;2286;51.570;7.090;2023-06-05T13:55:20;42.90;95.60
4548;DHT22;2286;51.570;7.090;2023-06-05T13:57:48;42.30;93.90
4548;DHT22;2286;51.570;7.090;2023-06-05T14:00:16;42.00;92.60
4548;DHT22;2286;51.570;7.090;2023-06-05T14:02:43;42.20;92.20
4548;DHT22;2286;51.570;7.090;2023-06-05T14:05:10;42.90;95.10
4548;DHT22;2286;51.570;7.090;2023-06-05T14:07:37;42.40;92.40
4548;DHT22;2286;51.570;7.090;2023-06-05T14:10:05;42.20;92.50
4548;DHT22;2286;51.570;7.090;2023-06-05T14:12:33;42.50;93.20
4548;DHT22;2286;51.570;7.090;2023-06-05T14:15:02;42.60;93.10
4548;DHT22;2286;51.570;7.090;2023-06-05T14:17:29;42.80;93.70
4548;DHT22;2286;51.570;7.090;2023-06-05T14:19:56;43.30;95.30
4548;DHT22;2286;51.570;7.090;2023-06-05T14:22:23;43.20;94.20
4548;DHT22;2286;51.570;7.090;2023-06-05T14:24:51;43.00;93.80
4548;DHT22;2286;51.570;7.090;2023-06-05T14:27:18;42.80;92.70
4548;DHT22;2286;51.570;7.090;2023-06-05T14:29:45;42.80;93.60
4548;DHT22;2286;51.570;7.090;2023-06-05T14:32:13;43.30;94.40
4548;DHT22;2286;51.570;7.090;2023-06-05T14:34:41;43.00;93.20
4548;DHT22;2286;51.570;7.090;2023-06-05T14:37:08;42.90;92.10
4548;DHT22;2286;51.570;7.090;2023-06-05T14:39:35;42.70;91.70
4548;DHT22;2286;51.570;7.090;2023-06-05T14:42:02;43.50;94.10
4548;DHT22;2286;51.570;7.090;2023-06-05T14:44:29;44.30;95.90
4548;DHT22;2286;51.570;7.090;2023-06-05T14:46:57;43.90;95.00
4548;DHT22;2286;51.570;7.090;2023-06-05T14:49:25;43.30;92.40
4548;DHT22;2286;51.570;7.090;2023-06-05T14:51:53;43.10;92.00
4548;DHT22;2286;51.570;7.090;2023-06-05T14:54:20;43.00;91.90
4548;DHT22;2286;51.570;7.090;2023-06-05T14:56:47;43.30;92.60
4548;DHT22;2286;51.570;7.090;2023-06-05T14:59:15;43.20;92.20
4548;DHT22;2286;51.570;7.090;2023-06-05T15:01:42;43.30;92.10
4548;DHT22;2286;51.570;7.090;2023-06-05T15:04:09;43.60;93.00
4548;DHT22;2286;51.570;7.090;2023-06-05T15:06:37;42.90;91.10
4548;DHT22;2286;51.570;7.090;2023-06-05T15:09:05;42.90;90.60
4548;DHT22;2286;51.570;7.090;2023-06-05T15:11:32;43.30;91.20
4548;DHT22;2286;51.570;7.090;2023-06-05T15:13:59;43.70;92.20
4548;DHT22;2286;51.570;7.090;2023-06-05T15:16:26;43.70;92.70
4548;DHT22;2286;51.570;7.090;2023-06-05T15:18:53;43.60;91.20
4548;DHT22;2286;51.570;7.090;2023-06-05T15:21:20;42.90;88.30
4548;DHT22;2286;51.570;7.090;2023-06-05T15:23:49;42.50;87.10
4548;DHT22;2286;51.570;7.090;2023-06-05T15:26:16;42.90;90.10
4548;DHT22;2286;51.570;7.090;2023-06-05T15:28:44;43.60;92.10
4548;DHT22;2286;51.570;7.090;2023-06-05T15:31:11;43.90;92.00
4548;DHT22;2286;51.570;7.090;2023-06-05T15:33:38;44.00;91.50
4548;DHT22;2286;51.570;7.090;2023-06-05T15:36:06;43.60;90.20
4548;DHT22;2286;51.570;7.090;2023-06-05T15:38:33;42.70;84.00
4548;DHT22;2286;51.570;7.090;2023-06-05T15:41:01;42.70;86.50
4548;DHT22;2286;51.570;7.090;2023-06-05T15:43:29;42.70;83.60
4548;DHT22;2286;51.570;7.090;2023-06-05T15:45:56;41.70;78.30
4548;DHT22;2286;51.570;7.090;2023-06-05T15:48:23;42.20;81.10
4548;DHT22;2286;51.570;7.090;2023-06-05T15:50:51;42.30;82.80
4548;DHT22;2286;51.570;7.090;2023-06-05T15:53:20;43.00;86.20
4548;DHT22;2286;51.570;7.090;2023-06-05T15:55:47;42.00;80.70
4548;DHT22;2286;51.570;7.090;2023-06-05T15:58:16;42.50;82.30
4548;DHT22;2286;51.570;7.090;2023-06-05T16:00:43;42.50;83.10
4548;DHT22;2286;51.570;7.090;2023-06-05T16:03:11;42.80;84.60
4548;DHT22;2286;51.570;7.090;2023-06-05T16:05:38;42.00;78.00
4548;DHT22;2286;51.570;7.090;2023-06-05T16:08:06;41.90;79.00
4548;DHT22;2286;51.570;7.090;2023-06-05T16:10:33;42.30;83.10
4548;DHT22;2286;51.570;7.090;2023-06-05T16:13:00;41.50;74.40
4548;DHT22;2286;51.570;7.090;2023-06-05T16:15:29;41.80;77.70
4548;DHT22;2286;51.570;7.090;2023-06-05T16:17:56;42.00;76.60
4548;DHT22;2286;51.570;7.090;2023-06-05T16:20:23;41.50;74.90
4548;DHT22;2286;51.570;7.090;2023-06-05T16:22:50;41.40;73.90